sensor_id;sensor_type;location;lat;lon;timestamp;pressure;altitude;pressure_sealevel;temperature;humidity
57048;BME280;42934;54.294;18.598;2023-02-12T00:01:54;102336.28;;;3.20;77.40
57048;BME280;42934;54.294;18.598;2023-02-12T00:04:23;102341.44;;;3.18;77.23
57048;BME280;42934;54.294;18.598;2023-02-12T00:06:52;102334.47;;;3.16;77.74
57048;BME280;42934;54.294;18.598;2023-02-12T00:09:21;102344.84;;;3.16;77.49
57048;BME280;42934;54.294;18.598;2023-02-12T00:11:51;102332.53;;;3.09;77.90
57048;BME280;42934;54.294;18.598;2023-02-12T00:14:20;102349.22;;;3.18;77.86
57048;BME280;42934;54.294;18.598;2023-02-12T00:16:49;102350.13;;;3.21;77.77
57048;BME280;42934;54.294;18.598;2023-02-12T00:19:19;102351.03;;;3.21;77.57
57048;BME280;42934;54.294;18.598;2023-02-12T00:21:49;102371.81;;;3.23;77.45
57048;BME280;42934;54.294;18.598;2023-02-12T00:24:18;102373.53;;;3.22;77.26
57048;BME280;42934;54.294;18.598;2023-02-12T00:26:48;102368.41;;;3.24;77.35
57048;BME280;42934;54.294;18.598;2023-02-12T00:29:17;102370.09;;;3.23;77.12
57048;BME280;42934;54.294;18.598;2023-02-12T00:31:47;102379.59;;;3.23;77.24
57048;BME280;42934;54.294;18.598;2023-02-12T00:34:16;102381.38;;;3.24;77.29
57048;BME280;42934;54.294;18.598;2023-02-12T00:36:46;102379.59;;;3.21;77.07
57048;BME280;42934;54.294;18.598;2023-02-12T00:39:16;102377.72;;;3.17;77.01
57048;BME280;42934;54.294;18.598;2023-02-12T00:41:45;102382.06;;;3.16;77.34
57048;BME280;42934;54.294;18.598;2023-02-12T00:44:14;102389.81;;;3.15;77.17
57048;BME280;42934;54.294;18.598;2023-02-12T00:46:43;102395.00;;;3.15;77.68
57048;BME280;42934;54.294;18.598;2023-02-12T00:49:13;102382.03;;;3.15;77.26
57048;BME280;42934;54.294;18.598;2023-02-12T00:51:43;102384.69;;;3.18;77.64
57048;BME280;42934;54.294;18.598;2023-02-12T00:54:13;102389.91;;;3.19;77.66
57048;BME280;42934;54.294;18.598;2023-02-12T00:56:42;102396.78;;;3.17;77.27
57048;BME280;42934;54.294;18.598;2023-02-12T00:59:12;102395.97;;;3.20;77.45
57048;BME280;42934;54.294;18.598;2023-02-12T01:01:41;102403.81;;;3.22;77.21
57048;BME280;42934;54.294;18.598;2023-02-12T01:04:10;102401.22;;;3.22;77.42
57048;BME280;42934;54.294;18.598;2023-02-12T01:06:40;102394.31;;;3.22;77.45
57048;BME280;42934;54.294;18.598;2023-02-12T01:09:10;102393.44;;;3.22;77.13
57048;BME280;42934;54.294;18.598;2023-02-12T01:11:41;102399.44;;;3.19;77.52
57048;BME280;42934;54.294;18.598;2023-02-12T01:14:10;102408.88;;;3.17;77.42
57048;BME280;42934;54.294;18.598;2023-02-12T01:16:39;102412.34;;;3.17;77.56
57048;BME280;42934;54.294;18.598;2023-02-12T01:19:11;102422.72;;;3.17;77.58
57048;BME280;42934;54.294;18.598;2023-02-12T01:21:40;102420.97;;;3.16;77.43
57048;BME280;42934;54.294;18.598;2023-02-12T01:24:09;102423.59;;;3.16;77.46
57048;BME280;42934;54.294;18.598;2023-02-12T01:26:40;102427.91;;;3.17;77.91
57048;BME280;42934;54.294;18.598;2023-02-12T01:29:10;102427.97;;;3.19;77.36
57048;BME280;42934;54.294;18.598;2023-02-12T01:31:39;102421.84;;;3.15;77.61
57048;BME280;42934;54.294;18.598;2023-02-12T01:34:10;102436.34;;;3.09;77.21
57048;BME280;42934;54.294;18.598;2023-02-12T01:36:40;102431.06;;;3.06;77.57
57048;BME280;42934;54.294;18.598;2023-02-12T01:39:10;102436.09;;;3.00;77.57
57048;BME280;42934;54.294;18.598;2023-02-12T01:41:43;102442.84;;;2.93;78.02
57048;BME280;42934;54.294;18.598;2023-02-12T01:44:15;102455.72;;;2.88;77.73
57048;BME280;42934;54.294;18.598;2023-02-12T01:46:47;102458.16;;;2.84;77.70
57048;BME280;42934;54.294;18.598;2023-02-12T01:49:20;102456.53;;;2.87;78.19
57048;BME280;42934;54.294;18.598;2023-02-12T01:51:52;102458.94;;;2.81;77.60
57048;BME280;42934;54.294;18.598;2023-02-12T01:54:24;102455.47;;;2.81;78.00
57048;BME280;42934;54.294;18.598;2023-02-12T01:56:56;102453.72;;;2.80;77.69
57048;BME280;42934;54.294;18.598;2023-02-12T01:59:25;102455.47;;;2.81;77.70
57048;BME280;42934;54.294;18.598;2023-02-12T02:01:55;102461.44;;;2.78;77.70
57048;BME280;42934;54.294;18.598;2023-02-12T02:04:28;102453.59;;;2.75;77.14
57048;BME280;42934;54.294;18.598;2023-02-12T02:07:00;102464.75;;;2.72;77.80
57048;BME280;42934;54.294;18.598;2023-02-12T02:09:32;102468.97;;;2.69;77.72
57048;BME280;42934;54.294;18.598;2023-02-12T02:12:04;102469.75;;;2.66;77.57
57048;BME280;42934;54.294;18.598;2023-02-12T02:14:54;102467.84;;;2.59;77.70
57048;BME280;42934;54.294;18.598;2023-02-12T02:17:43;102467.59;;;2.52;77.29
57048;BME280;42934;54.294;18.598;2023-02-12T02:26:58;102485.22;;;2.35;77.99
57048;BME280;42934;54.294;18.598;2023-02-12T02:32:30;102458.00;;;2.20;78.29
57048;BME280;42934;54.294;18.598;2023-02-12T02:35:09;102476.38;;;2.26;77.76
57048;BME280;42934;54.294;18.598;2023-02-12T02:37:42;102478.84;;;2.23;77.86
57048;BME280;42934;54.294;18.598;2023-02-12T02:40:16;102483.97;;;2.22;77.41
57048;BME280;42934;54.294;18.598;2023-02-12T02:42:50;102472.69;;;2.20;78.14
57048;BME280;42934;54.294;18.598;2023-02-12T02:45:25;102475.44;;;2.24;78.15
57048;BME280;42934;54.294;18.598;2023-02-12T02:48:02;102479.88;;;2.28;77.72
57048;BME280;42934;54.294;18.598;2023-02-12T02:50:35;102474.59;;;2.25;77.34
57048;BME280;42934;54.294;18.598;2023-02-12T02:53:11;102479.69;;;2.22;76.90
57048;BME280;42934;54.294;18.598;2023-02-12T02:55:45;102480.47;;;2.20;77.08
57048;BME280;42934;54.294;18.598;2023-02-12T02:58:18;102495.91;;;2.17;77.04
57048;BME280;42934;54.294;18.598;2023-02-12T03:00:53;102488.09;;;2.15;77.12
57048;BME280;42934;54.294;18.598;2023-02-12T03:03:29;102488.97;;;2.16;77.62
57048;BME280;42934;54.294;18.598;2023-02-12T03:06:05;102489.06;;;2.19;77.65
57048;BME280;42934;54.294;18.598;2023-02-12T03:08:38;102498.56;;;2.18;77.52
57048;BME280;42934;54.294;18.598;2023-02-12T03:11:12;102502.88;;;2.18;77.17
57048;BME280;42934;54.294;18.598;2023-02-12T03:13:45;102517.59;;;2.20;77.95
57048;BME280;42934;54.294;18.598;2023-02-12T03:16:19;102520.38;;;2.25;77.57
57048;BME280;42934;54.294;18.598;2023-02-12T03:18:55;102528.22;;;2.28;76.89
57048;BME280;42934;54.294;18.598;2023-02-12T03:21:34;102517.84;;;2.26;77.01
57048;BME280;42934;54.294;18.598;2023-02-12T03:24:11;102522.09;;;2.24;76.59
57048;BME280;42934;54.294;18.598;2023-02-12T03:26:46;102525.25;;;2.16;76.58
57048;BME280;42934;54.294;18.598;2023-02-12T03:29:17;102533.63;;;2.07;76.27
57048;BME280;42934;54.294;18.598;2023-02-12T03:31:55;102536.78;;;1.98;77.15
57048;BME280;42934;54.294;18.598;2023-02-12T03:34:33;102547.91;;;1.96;77.17
57048;BME280;42934;54.294;18.598;2023-02-12T03:37:09;102554.66;;;1.91;77.59
57048;BME280;42934;54.294;18.598;2023-02-12T03:39:48;102559.69;;;1.86;77.63
57048;BME280;42934;54.294;18.598;2023-02-12T03:42:30;102565.69;;;1.85;77.04
57048;BME280;42934;54.294;18.598;2023-02-12T03:45:03;102570.75;;;1.82;77.12
57048;BME280;42934;54.294;18.598;2023-02-12T03:47:45;102575.81;;;1.77;76.76
57048;BME280;42934;54.294;18.598;2023-02-12T03:50:18;102580.81;;;1.73;77.23
57048;BME280;42934;54.294;18.598;2023-02-12T03:52:50;102577.34;;;1.72;77.62
57048;BME280;42934;54.294;18.598;2023-02-12T03:55:19;102579.91;;;1.71;77.82
57048;BME280;42934;54.294;18.598;2023-02-12T03:57:51;102582.38;;;1.68;77.39
57048;BME280;42934;54.294;18.598;2023-02-12T04:00:23;102585.78;;;1.67;77.06
57048;BME280;42934;54.294;18.598;2023-02-12T04:02:54;102578.00;;;1.67;77.50
57048;BME280;42934;54.294;18.598;2023-02-12T04:05:26;102578.94;;;1.69;77.38
57048;BME280;42934;54.294;18.598;2023-02-12T04:07:56;102577.97;;;1.65;77.76
57048;BME280;42934;54.294;18.598;2023-02-12T04:10:30;102582.22;;;1.63;77.52
57048;BME280;42934;54.294;18.598;2023-02-12T04:13:08;102588.16;;;1.61;77.88
57048;BME280;42934;54.294;18.598;2023-02-12T04:15:50;102598.50;;;1.61;77.36
57048;BME280;42934;54.294;18.598;2023-02-12T04:18:28;102578.41;;;1.53;77.08
57048;BME280;42934;54.294;18.598;2023-02-12T04:21:09;102589.38;;;1.46;77.36
57048;BME280;42934;54.294;18.598;2023-02-12T04:23:48;102586.66;;;1.43;76.76
57048;BME280;42934;54.294;18.598;2023-02-12T04:26:23;102590.00;;;1.39;77.45
57048;BME280;42934;54.294;18.598;2023-02-12T04:29:08;102590.75;;;1.36;76.71
57048;BME280;42934;54.294;18.598;2023-02-12T04:31:43;102586.13;;;1.28;76.60
57048;BME280;42934;54.294;18.598;2023-02-12T04:34:18;102592.13;;;1.27;76.88
57048;BME280;42934;54.294;18.598;2023-02-12T04:36:55;102599.78;;;1.24;77.11
57048;BME280;42934;54.294;18.598;2023-02-12T04:39:28;102604.97;;;1.24;77.39
57048;BME280;42934;54.294;18.598;2023-02-12T04:41:59;102600.56;;;1.21;77.11
57048;BME280;42934;54.294;18.598;2023-02-12T04:44:32;102607.47;;;1.22;76.90
57048;BME280;42934;54.294;18.598;2023-02-12T04:47:01;102609.19;;;1.22;76.88
57048;BME280;42934;54.294;18.598;2023-02-12T04:49:31;102611.06;;;1.26;77.78
57048;BME280;42934;54.294;18.598;2023-02-12T04:52:01;102611.00;;;1.24;76.74
57048;BME280;42934;54.294;18.598;2023-02-12T04:54:30;102608.25;;;1.20;76.68
57048;BME280;42934;54.294;18.598;2023-02-12T04:56:59;102611.66;;;1.19;77.58
57048;BME280;42934;54.294;18.598;2023-02-12T04:59:29;102609.88;;;1.18;77.71
57048;BME280;42934;54.294;18.598;2023-02-12T05:01:58;102615.13;;;1.19;77.43
57048;BME280;42934;54.294;18.598;2023-02-12T05:04:27;102612.53;;;1.19;77.51
57048;BME280;42934;54.294;18.598;2023-02-12T05:06:56;102609.13;;;1.20;77.08
57048;BME280;42934;54.294;18.598;2023-02-12T05:09:27;102609.13;;;1.20;77.35
57048;BME280;42934;54.294;18.598;2023-02-12T05:11:56;102604.78;;;1.19;77.55
57048;BME280;42934;54.294;18.598;2023-02-12T05:14:26;102606.50;;;1.19;76.91
57048;BME280;42934;54.294;18.598;2023-02-12T05:16:55;102605.59;;;1.18;76.96
57048;BME280;42934;54.294;18.598;2023-02-12T05:19:24;102611.66;;;1.19;77.42
57048;BME280;42934;54.294;18.598;2023-02-12T05:21:53;102615.13;;;1.19;77.16
57048;BME280;42934;54.294;18.598;2023-02-12T05:24:23;102613.25;;;1.15;77.05
57048;BME280;42934;54.294;18.598;2023-02-12T05:26:53;102620.19;;;1.16;77.00
57048;BME280;42934;54.294;18.598;2023-02-12T05:29:23;102617.63;;;1.18;77.62
57048;BME280;42934;54.294;18.598;2023-02-12T05:31:52;102618.66;;;1.21;77.88
57048;BME280;42934;54.294;18.598;2023-02-12T05:34:22;102624.75;;;1.23;76.95
57048;BME280;42934;54.294;18.598;2023-02-12T05:36:50;102621.28;;;1.23;77.70
57048;BME280;42934;54.294;18.598;2023-02-12T05:39:20;102619.56;;;1.23;76.95
57048;BME280;42934;54.294;18.598;2023-02-12T05:41:49;102615.25;;;1.22;77.33
57048;BME280;42934;54.294;18.598;2023-02-12T05:44:20;102626.47;;;1.23;77.31
57048;BME280;42934;54.294;18.598;2023-02-12T05:46:48;102629.88;;;1.22;77.09
57048;BME280;42934;54.294;18.598;2023-02-12T05:49:18;102637.56;;;1.20;77.28
57048;BME280;42934;54.294;18.598;2023-02-12T05:51:47;102621.78;;;1.12;77.74
57048;BME280;42934;54.294;18.598;2023-02-12T05:54:17;102635.91;;;1.21;77.83
57048;BME280;42934;54.294;18.598;2023-02-12T05:56:47;102636.81;;;1.23;77.70
57048;BME280;42934;54.294;18.598;2023-02-12T05:59:20;102641.19;;;1.24;77.20
57048;BME280;42934;54.294;18.598;2023-02-12T06:01:50;102631.63;;;1.23;77.52
57048;BME280;42934;54.294;18.598;2023-02-12T06:04:23;102637.56;;;1.20;77.79
57048;BME280;42934;54.294;18.598;2023-02-12T06:06:52;102649.63;;;1.20;76.93
57048;BME280;42934;54.294;18.598;2023-02-12T06:09:23;102646.25;;;1.21;77.07
57048;BME280;42934;54.294;18.598;2023-02-12T06:11:52;102654.00;;;1.21;77.38
57048;BME280;42934;54.294;18.598;2023-02-12T06:14:23;102655.66;;;1.19;77.56
57048;BME280;42934;54.294;18.598;2023-02-12T06:16:52;102658.88;;;1.13;76.86
57048;BME280;42934;54.294;18.598;2023-02-12T06:19:21;102656.09;;;1.08;77.31
57048;BME280;42934;54.294;18.598;2023-02-12T06:21:51;102667.16;;;1.04;77.03
57048;BME280;42934;54.294;18.598;2023-02-12T06:24:20;102668.03;;;1.05;77.33
57048;BME280;42934;54.294;18.598;2023-02-12T06:26:50;102673.28;;;1.06;77.55
57048;BME280;42934;54.294;18.598;2023-02-12T06:29:19;102676.88;;;1.10;78.09
57048;BME280;42934;54.294;18.598;2023-02-12T06:31:50;102683.16;;;1.17;77.44
57048;BME280;42934;54.294;18.598;2023-02-12T06:34:20;102684.97;;;1.19;77.55
57048;BME280;42934;54.294;18.598;2023-02-12T06:36:49;102685.06;;;1.21;77.93
57048;BME280;42934;54.294;18.598;2023-02-12T06:39:18;102680.00;;;1.24;78.02
57048;BME280;42934;54.294;18.598;2023-02-12T06:41:47;102684.34;;;1.25;77.13
57048;BME280;42934;54.294;18.598;2023-02-12T06:44:16;102687.88;;;1.27;77.51
57048;BME280;42934;54.294;18.598;2023-02-12T06:46:46;102690.50;;;1.28;77.74
57048;BME280;42934;54.294;18.598;2023-02-12T06:49:16;102700.09;;;1.31;77.09
57048;BME280;42934;54.294;18.598;2023-02-12T06:51:45;102688.13;;;1.33;77.79
57048;BME280;42934;54.294;18.598;2023-02-12T06:54:16;102696.88;;;1.36;77.96
57048;BME280;42934;54.294;18.598;2023-02-12T06:56:45;102686.63;;;1.40;77.37
57048;BME280;42934;54.294;18.598;2023-02-12T06:59:16;102690.06;;;1.39;77.58
57048;BME280;42934;54.294;18.598;2023-02-12T07:01:45;102696.03;;;1.38;77.48
57048;BME280;42934;54.294;18.598;2023-02-12T07:04:15;102698.63;;;1.38;77.03
57048;BME280;42934;54.294;18.598;2023-02-12T07:06:45;102702.16;;;1.40;77.50
57048;BME280;42934;54.294;18.598;2023-02-12T07:09:15;102693.66;;;1.44;77.53
57048;BME280;42934;54.294;18.598;2023-02-12T07:11:44;102693.78;;;1.47;78.30
57048;BME280;42934;54.294;18.598;2023-02-12T07:14:14;102687.84;;;1.49;77.78
57048;BME280;42934;54.294;18.598;2023-02-12T07:16:43;102683.53;;;1.50;77.36
57048;BME280;42934;54.294;18.598;2023-02-12T07:19:13;102680.16;;;1.51;77.65
57048;BME280;42934;54.294;18.598;2023-02-12T07:21:45;102678.38;;;1.50;77.19
57048;BME280;42934;54.294;18.598;2023-02-12T07:24:14;102681.88;;;1.50;77.26
57048;BME280;42934;54.294;18.598;2023-02-12T07:26:44;102683.53;;;1.50;77.88
57048;BME280;42934;54.294;18.598;2023-02-12T07:29:14;102682.75;;;1.51;78.02
57048;BME280;42934;54.294;18.598;2023-02-12T07:31:43;102685.38;;;1.52;77.94
57048;BME280;42934;54.294;18.598;2023-02-12T07:34:13;102682.84;;;1.54;77.79
57048;BME280;42934;54.294;18.598;2023-02-12T07:36:43;102687.31;;;1.58;78.06
57048;BME280;42934;54.294;18.598;2023-02-12T07:39:13;102693.44;;;1.60;78.30
57048;BME280;42934;54.294;18.598;2023-02-12T07:41:42;102700.38;;;1.61;78.03
57048;BME280;42934;54.294;18.598;2023-02-12T07:44:12;102700.38;;;1.61;77.87
57048;BME280;42934;54.294;18.598;2023-02-12T07:46:42;102689.19;;;1.62;77.78
57048;BME280;42934;54.294;18.598;2023-02-12T07:49:17;102683.31;;;1.66;77.80
57048;BME280;42934;54.294;18.598;2023-02-12T07:51:48;102687.53;;;1.64;78.14
57048;BME280;42934;54.294;18.598;2023-02-12T07:54:17;102678.75;;;1.59;77.86
57048;BME280;42934;54.294;18.598;2023-02-12T07:56:46;102683.13;;;1.62;78.39
57048;BME280;42934;54.294;18.598;2023-02-12T07:59:17;102679.75;;;1.64;77.86
57048;BME280;42934;54.294;18.598;2023-02-12T08:01:47;102671.88;;;1.61;78.23
57048;BME280;42934;54.294;18.598;2023-02-12T08:04:19;102670.28;;;1.65;78.70
57048;BME280;42934;54.294;18.598;2023-02-12T08:06:51;102669.59;;;1.69;78.24
57048;BME280;42934;54.294;18.598;2023-02-12T08:09:23;102674.09;;;1.74;78.77
57048;BME280;42934;54.294;18.598;2023-02-12T08:11:52;102673.38;;;1.78;78.39
57048;BME280;42934;54.294;18.598;2023-02-12T08:14:22;102684.72;;;1.82;77.94
57048;BME280;42934;54.294;18.598;2023-02-12T08:16:52;102682.19;;;1.84;77.88
57048;BME280;42934;54.294;18.598;2023-02-12T08:19:22;102685.84;;;1.89;78.27
57048;BME280;42934;54.294;18.598;2023-02-12T08:21:56;102680.81;;;1.93;78.44
57048;BME280;42934;54.294;18.598;2023-02-12T08:24:25;102685.28;;;1.97;78.23
57048;BME280;42934;54.294;18.598;2023-02-12T08:26:55;102686.41;;;2.05;78.32
57048;BME280;42934;54.294;18.598;2023-02-12T08:29:26;102691.00;;;2.13;77.91
57048;BME280;42934;54.294;18.598;2023-02-12T08:31:57;102687.75;;;2.18;78.42
57048;BME280;42934;54.294;18.598;2023-02-12T08:34:28;102693.94;;;2.23;77.76
57048;BME280;42934;54.294;18.598;2023-02-12T08:36:59;102685.50;;;2.29;77.97
57048;BME280;42934;54.294;18.598;2023-02-12T08:39:29;102687.38;;;2.33;78.44
57048;BME280;42934;54.294;18.598;2023-02-12T08:41:59;102676.28;;;2.37;77.85
57048;BME280;42934;54.294;18.598;2023-02-12T08:44:29;102678.09;;;2.40;78.12
57048;BME280;42934;54.294;18.598;2023-02-12T08:46:58;102668.69;;;2.42;77.94
57048;BME280;42934;54.294;18.598;2023-02-12T08:49:28;102666.19;;;2.45;77.72
57048;BME280;42934;54.294;18.598;2023-02-12T08:51:59;102671.41;;;2.46;78.16
57048;BME280;42934;54.294;18.598;2023-02-12T08:54:30;102677.59;;;2.50;78.10
57048;BME280;42934;54.294;18.598;2023-02-12T08:57:01;102663.00;;;2.54;77.85
57048;BME280;42934;54.294;18.598;2023-02-12T08:59:30;102666.56;;;2.57;77.90
57048;BME280;42934;54.294;18.598;2023-02-12T09:02:00;102654.50;;;2.58;77.80
57048;BME280;42934;54.294;18.598;2023-02-12T09:04:31;102661.59;;;2.63;77.50
57048;BME280;42934;54.294;18.598;2023-02-12T09:07:02;102667.66;;;2.64;77.83
57048;BME280;42934;54.294;18.598;2023-02-12T09:09:31;102671.22;;;2.67;77.50
57048;BME280;42934;54.294;18.598;2023-02-12T09:12:00;102666.94;;;2.68;77.74
57048;BME280;42934;54.294;18.598;2023-02-12T09:14:30;102674.00;;;2.73;77.55
57048;BME280;42934;54.294;18.598;2023-02-12T09:16:59;102671.56;;;2.78;77.70
57048;BME280;42934;54.294;18.598;2023-02-12T09:19:29;102662.16;;;2.82;77.83
57048;BME280;42934;54.294;18.598;2023-02-12T09:21:58;102659.66;;;2.85;77.43
57048;BME280;42934;54.294;18.598;2023-02-12T09:24:28;102655.56;;;2.91;77.70
57048;BME280;42934;54.294;18.598;2023-02-12T09:26:59;102654.81;;;2.95;77.31
57048;BME280;42934;54.294;18.598;2023-02-12T09:29:28;102667.88;;;2.99;77.44
57048;BME280;42934;54.294;18.598;2023-02-12T09:31:57;102669.78;;;3.04;77.42
57048;BME280;42934;54.294;18.598;2023-02-12T09:34:27;102662.03;;;3.06;77.45
57048;BME280;42934;54.294;18.598;2023-02-12T09:36:56;102669.78;;;3.04;77.28
57048;BME280;42934;54.294;18.598;2023-02-12T09:39:28;102667.22;;;3.06;77.33
57048;BME280;42934;54.294;18.598;2023-02-12T09:42:12;102662.19;;;3.10;77.20
57048;BME280;42934;54.294;18.598;2023-02-12T09:44:49;102668.34;;;3.14;77.24
57048;BME280;42934;54.294;18.598;2023-02-12T09:47:28;102659.00;;;3.19;77.16
57048;BME280;42934;54.294;18.598;2023-02-12T09:50:22;102652.25;;;3.26;77.25
57048;BME280;42934;54.294;18.598;2023-02-12T09:52:55;102649.84;;;3.32;77.44
57048;BME280;42934;54.294;18.598;2023-02-12T09:55:29;102650.00;;;3.36;77.38
57048;BME280;42934;54.294;18.598;2023-02-12T09:58:01;102644.91;;;3.41;77.30
57048;BME280;42934;54.294;18.598;2023-02-12T10:00:32;102646.63;;;3.40;76.98
57048;BME280;42934;54.294;18.598;2023-02-12T10:03:02;102650.16;;;3.42;77.13
57048;BME280;42934;54.294;18.598;2023-02-12T10:05:36;102656.25;;;3.43;76.80
57048;BME280;42934;54.294;18.598;2023-02-12T10:08:28;102657.19;;;3.47;77.02
57048;BME280;42934;54.294;18.598;2023-02-12T10:11:12;102659.00;;;3.49;76.73
57048;BME280;42934;54.294;18.598;2023-02-12T10:13:50;102640.88;;;3.51;76.66
57048;BME280;42934;54.294;18.598;2023-02-12T10:16:34;102647.97;;;3.56;76.85
57048;BME280;42934;54.294;18.598;2023-02-12T10:19:18;102644.69;;;3.63;76.85
57048;BME280;42934;54.294;18.598;2023-02-12T10:21:56;102634.41;;;3.67;76.67
57048;BME280;42934;54.294;18.598;2023-02-12T10:24:48;102634.53;;;3.71;76.48
57048;BME280;42934;54.294;18.598;2023-02-12T10:27:33;102634.69;;;3.77;76.56
57048;BME280;42934;54.294;18.598;2023-02-12T10:30:15;102628.81;;;3.84;76.91
57048;BME280;42934;54.294;18.598;2023-02-12T10:32:50;102620.28;;;3.89;76.58
57048;BME280;42934;54.294;18.598;2023-02-12T10:35:25;102616.13;;;3.95;76.62
57048;BME280;42934;54.294;18.598;2023-02-12T10:37:59;102622.19;;;3.96;76.33
57048;BME280;42934;54.294;18.598;2023-02-12T10:40:32;102604.16;;;4.02;76.38
57048;BME280;42934;54.294;18.598;2023-02-12T10:43:06;102597.28;;;4.04;76.07
57048;BME280;42934;54.294;18.598;2023-02-12T10:45:41;102593.16;;;4.12;76.26
57048;BME280;42934;54.294;18.598;2023-02-12T10:48:14;102595.06;;;4.19;75.99
57048;BME280;42934;54.294;18.598;2023-02-12T10:50:56;102583.97;;;4.26;76.07
57048;BME280;42934;54.294;18.598;2023-02-12T10:53:32;102590.06;;;4.27;75.70
57048;BME280;42934;54.294;18.598;2023-02-12T10:56:16;102584.13;;;4.32;75.65
57048;BME280;42934;54.294;18.598;2023-02-12T10:58:58;102586.91;;;4.40;76.11
57048;BME280;42934;54.294;18.598;2023-02-12T11:01:29;102582.75;;;4.48;75.56
57048;BME280;42934;54.294;18.598;2023-02-12T11:06:56;102580.50;;;4.64;75.34
57048;BME280;42934;54.294;18.598;2023-02-12T11:09:28;102582.44;;;4.72;75.35
57048;BME280;42934;54.294;18.598;2023-02-12T11:11:58;102582.66;;;4.82;74.94
57048;BME280;42934;54.294;18.598;2023-02-12T11:14:29;102591.63;;;4.94;75.33
57048;BME280;42934;54.294;18.598;2023-02-12T11:16:59;102601.47;;;5.09;74.70
57048;BME280;42934;54.294;18.598;2023-02-12T11:19:30;102586.19;;;5.24;74.42
57048;BME280;42934;54.294;18.598;2023-02-12T11:22:07;102579.88;;;5.59;74.41
57048;BME280;42934;54.294;18.598;2023-02-12T11:24:38;102562.34;;;5.96;74.07
57048;BME280;42934;54.294;18.598;2023-02-12T11:27:22;102553.34;;;6.31;72.90
57048;BME280;42934;54.294;18.598;2023-02-12T11:30:15;102550.19;;;6.51;71.81
57048;BME280;42934;54.294;18.598;2023-02-12T11:32:45;102551.97;;;6.53;71.21
57048;BME280;42934;54.294;18.598;2023-02-12T11:35:18;102550.97;;;6.47;71.39
57048;BME280;42934;54.294;18.598;2023-02-12T11:37:54;102552.72;;;6.46;71.83
57048;BME280;42934;54.294;18.598;2023-02-12T11:40:26;102552.69;;;6.45;71.19
57048;BME280;42934;54.294;18.598;2023-02-12T11:42:57;102543.09;;;6.42;71.40
57048;BME280;42934;54.294;18.598;2023-02-12T11:45:32;102556.19;;;6.47;71.60
57048;BME280;42934;54.294;18.598;2023-02-12T11:48:02;102551.84;;;6.44;71.17
57048;BME280;42934;54.294;18.598;2023-02-12T11:50:46;102549.22;;;6.46;71.48
57048;BME280;42934;54.294;18.598;2023-02-12T11:53:22;102544.06;;;6.49;71.01
57048;BME280;42934;54.294;18.598;2023-02-12T11:55:55;102554.56;;;6.55;70.96
57048;BME280;42934;54.294;18.598;2023-02-12T11:58:26;102552.09;;;6.63;70.65
57048;BME280;42934;54.294;18.598;2023-02-12T12:01:05;102551.34;;;6.71;70.83
57048;BME280;42934;54.294;18.598;2023-02-12T12:03:45;102550.56;;;6.77;70.61
57048;BME280;42934;54.294;18.598;2023-02-12T12:06:28;102561.09;;;6.85;70.58
57048;BME280;42934;54.294;18.598;2023-02-12T12:09:04;102563.66;;;6.81;70.69
57048;BME280;42934;54.294;18.598;2023-02-12T12:11:42;102559.25;;;6.77;70.47
57048;BME280;42934;54.294;18.598;2023-02-12T12:14:20;102542.72;;;6.78;70.46
57048;BME280;42934;54.294;18.598;2023-02-12T12:16:58;102541.81;;;6.76;70.06
57048;BME280;42934;54.294;18.598;2023-02-12T12:19:51;102533.81;;;6.63;70.37
57048;BME280;42934;54.294;18.598;2023-02-12T12:22:37;102523.25;;;6.55;70.57
57048;BME280;42934;54.294;18.598;2023-02-12T12:25:21;102520.72;;;6.59;70.92
57048;BME280;42934;54.294;18.598;2023-02-12T12:28:00;102524.13;;;6.54;70.43
57048;BME280;42934;54.294;18.598;2023-02-12T12:30:41;102525.88;;;6.53;70.46
57048;BME280;42934;54.294;18.598;2023-02-12T12:33:21;102529.47;;;6.63;70.49
57048;BME280;42934;54.294;18.598;2023-02-12T12:36:08;102525.91;;;6.58;71.18
57048;BME280;42934;54.294;18.598;2023-02-12T12:38:53;102519.69;;;6.50;71.07
57048;BME280;42934;54.294;18.598;2023-02-12T12:41:34;102510.66;;;6.25;71.07
57048;BME280;42934;54.294;18.598;2023-02-12T12:44:21;102497.56;;;6.22;71.93
57048;BME280;42934;54.294;18.598;2023-02-12T12:47:09;102496.69;;;6.23;71.64
57048;BME280;42934;54.294;18.598;2023-02-12T12:50:03;102488.66;;;6.07;72.45
57048;BME280;42934;54.294;18.598;2023-02-12T12:52:56;102491.38;;;6.15;72.75
57048;BME280;42934;54.294;18.598;2023-02-12T12:55:47;102474.06;;;6.20;72.11
57048;BME280;42934;54.294;18.598;2023-02-12T12:58:27;102477.41;;;6.10;72.51
57048;BME280;42934;54.294;18.598;2023-02-12T13:01:12;102477.22;;;5.99;72.26
57048;BME280;42934;54.294;18.598;2023-02-12T13:04:07;102479.72;;;5.93;73.01
57048;BME280;42934;54.294;18.598;2023-02-12T13:06:55;102475.97;;;5.77;73.63
57048;BME280;42934;54.294;18.598;2023-02-12T13:09:37;102481.91;;;5.68;74.07
57048;BME280;42934;54.294;18.598;2023-02-12T13:12:40;102479.16;;;5.59;74.05
57048;BME280;42934;54.294;18.598;2023-02-12T13:15:20;102490.25;;;5.49;74.12
57048;BME280;42934;54.294;18.598;2023-02-12T13:17:54;102506.41;;;5.30;74.83
57048;BME280;42934;54.294;18.598;2023-02-12T13:20:33;102510.53;;;5.18;74.87
57048;BME280;42934;54.294;18.598;2023-02-12T13:27:43;102523.31;;;5.08;75.09
57048;BME280;42934;54.294;18.598;2023-02-12T13:30:19;102529.22;;;4.97;75.79
57048;BME280;42934;54.294;18.598;2023-02-12T13:48:47;102501.47;;;4.99;76.82
57048;BME280;42934;54.294;18.598;2023-02-12T13:51:20;102502.03;;;4.85;77.28
57048;BME280;42934;54.294;18.598;2023-02-12T13:54:01;102507.91;;;4.76;77.14
57048;BME280;42934;54.294;18.598;2023-02-12T13:56:35;102504.00;;;4.55;78.44